sensor_id;sensor_type;location;lat;lon;timestamp;P1;durP1;ratioP1;P2;durP2;ratioP2
11018;SDS011;5563;52.296;6.806;2023-06-14T00:02:36;3.53;;;2.58;;
11018;SDS011;5563;52.296;6.806;2023-06-14T00:05:10;2.90;;;2.70;;
11018;SDS011;5563;52.296;6.806;2023-06-14T00:07:44;4.50;;;2.63;;
11018;SDS011;5563;52.296;6.806;2023-06-14T00:10:20;4.57;;;2.78;;
11018;SDS011;5563;52.296;6.806;2023-06-14T00:12:53;3.72;;;2.58;;
11018;SDS011;5563;52.296;6.806;2023-06-14T00:15:20;3.42;;;2.85;;
11018;SDS011;5563;52.296;6.806;2023-06-14T00:17:53;4.10;;;2.92;;
11018;SDS011;5563;52.296;6.806;2023-06-14T00:20:21;4.47;;;2.47;;
11018;SDS011;5563;52.296;6.806;2023-06-14T00:22:56;4.60;;;2.83;;
11018;SDS011;5563;52.296;6.806;2023-06-14T00:25:23;4.57;;;2.78;;
11018;SDS011;5563;52.296;6.806;2023-06-14T00:28:01;4.00;;;2.75;;
11018;SDS011;5563;52.296;6.806;2023-06-14T00:30:28;8.82;;;3.05;;
11018;SDS011;5563;52.296;6.806;2023-06-14T00:33:03;5.05;;;2.78;;
11018;SDS011;5563;52.296;6.806;2023-06-14T00:35:31;4.68;;;2.85;;
11018;SDS011;5563;52.296;6.806;2023-06-14T00:37:58;3.90;;;2.90;;
11018;SDS011;5563;52.296;6.806;2023-06-14T00:40:39;5.00;;;2.60;;
11018;SDS011;5563;52.296;6.806;2023-06-14T00:43:06;4.47;;;2.70;;
11018;SDS011;5563;52.296;6.806;2023-06-14T00:45:39;3.17;;;2.72;;
11018;SDS011;5563;52.296;6.806;2023-06-14T00:48:12;4.72;;;2.88;;
11018;SDS011;5563;52.296;6.806;2023-06-14T00:50:47;4.40;;;2.80;;
11018;SDS011;5563;52.296;6.806;2023-06-14T00:53:16;2.92;;;2.58;;
11018;SDS011;5563;52.296;6.806;2023-06-14T00:55:53;3.33;;;2.75;;
11018;SDS011;5563;52.296;6.806;2023-06-14T00:58:20;3.10;;;2.55;;
11018;SDS011;5563;52.296;6.806;2023-06-14T01:00:55;3.47;;;2.60;;
11018;SDS011;5563;52.296;6.806;2023-06-14T01:03:23;5.78;;;2.80;;
11018;SDS011;5563;52.296;6.806;2023-06-14T01:06:27;4.80;;;2.70;;
11018;SDS011;5563;52.296;6.806;2023-06-14T01:09:07;3.20;;;2.50;;
11018;SDS011;5563;52.296;6.806;2023-06-14T01:12:10;3.35;;;2.67;;
11018;SDS011;5563;52.296;6.806;2023-06-14T01:14:48;5.70;;;2.70;;
11018;SDS011;5563;52.296;6.806;2023-06-14T01:17:28;6.00;;;2.72;;
11018;SDS011;5563;52.296;6.806;2023-06-14T01:19:58;8.07;;;3.08;;
11018;SDS011;5563;52.296;6.806;2023-06-14T01:22:33;6.05;;;2.88;;
11018;SDS011;5563;52.296;6.806;2023-06-14T01:25:03;4.45;;;2.58;;
11018;SDS011;5563;52.296;6.806;2023-06-14T01:27:37;3.55;;;2.97;;
11018;SDS011;5563;52.296;6.806;2023-06-14T01:30:11;3.47;;;2.45;;
11018;SDS011;5563;52.296;6.806;2023-06-14T01:32:39;2.88;;;2.35;;
11018;SDS011;5563;52.296;6.806;2023-06-14T01:35:14;3.50;;;2.50;;
11018;SDS011;5563;52.296;6.806;2023-06-14T01:37:41;3.97;;;2.90;;
11018;SDS011;5563;52.296;6.806;2023-06-14T01:40:15;5.32;;;2.60;;
11018;SDS011;5563;52.296;6.806;2023-06-14T01:42:44;3.90;;;2.50;;
11018;SDS011;5563;52.296;6.806;2023-06-14T01:45:20;4.25;;;2.47;;
11018;SDS011;5563;52.296;6.806;2023-06-14T01:47:49;4.18;;;2.85;;
11018;SDS011;5563;52.296;6.806;2023-06-14T01:50:23;6.95;;;2.75;;
11018;SDS011;5563;52.296;6.806;2023-06-14T01:52:55;3.25;;;2.70;;
11018;SDS011;5563;52.296;6.806;2023-06-14T01:55:28;3.88;;;2.45;;
11018;SDS011;5563;52.296;6.806;2023-06-14T01:57:55;5.78;;;2.40;;
11018;SDS011;5563;52.296;6.806;2023-06-14T02:00:29;2.60;;;2.40;;
11018;SDS011;5563;52.296;6.806;2023-06-14T02:03:02;3.92;;;2.78;;
11018;SDS011;5563;52.296;6.806;2023-06-14T02:05:42;2.85;;;2.40;;
11018;SDS011;5563;52.296;6.806;2023-06-14T02:08:15;5.10;;;3.00;;
11018;SDS011;5563;52.296;6.806;2023-06-14T02:10:42;3.58;;;2.90;;
11018;SDS011;5563;52.296;6.806;2023-06-14T02:13:15;7.18;;;2.70;;
11018;SDS011;5563;52.296;6.806;2023-06-14T02:15:48;7.63;;;3.00;;
11018;SDS011;5563;52.296;6.806;2023-06-14T02:18:26;3.88;;;2.72;;
11018;SDS011;5563;52.296;6.806;2023-06-14T02:20:52;2.83;;;2.55;;
11018;SDS011;5563;52.296;6.806;2023-06-14T02:23:26;3.53;;;2.50;;
11018;SDS011;5563;52.296;6.806;2023-06-14T02:25:53;4.57;;;2.60;;
11018;SDS011;5563;52.296;6.806;2023-06-14T02:28:26;3.42;;;2.72;;
11018;SDS011;5563;52.296;6.806;2023-06-14T02:30:59;5.22;;;2.50;;
11018;SDS011;5563;52.296;6.806;2023-06-14T02:33:33;4.10;;;2.40;;
11018;SDS011;5563;52.296;6.806;2023-06-14T02:36:00;4.75;;;2.50;;
11018;SDS011;5563;52.296;6.806;2023-06-14T02:38:35;5.00;;;2.45;;
11018;SDS011;5563;52.296;6.806;2023-06-14T02:41:02;6.70;;;2.50;;
11018;SDS011;5563;52.296;6.806;2023-06-14T02:43:36;5.00;;;2.70;;
11018;SDS011;5563;52.296;6.806;2023-06-14T02:46:04;6.57;;;2.42;;
11018;SDS011;5563;52.296;6.806;2023-06-14T02:48:37;6.85;;;2.50;;
11018;SDS011;5563;52.296;6.806;2023-06-14T02:51:11;2.55;;;2.35;;
11018;SDS011;5563;52.296;6.806;2023-06-14T02:53:39;4.50;;;2.75;;
11018;SDS011;5563;52.296;6.806;2023-06-14T02:56:14;4.03;;;2.75;;
11018;SDS011;5563;52.296;6.806;2023-06-14T02:58:44;3.67;;;2.47;;
11018;SDS011;5563;52.296;6.806;2023-06-14T03:01:17;3.95;;;2.75;;
11018;SDS011;5563;52.296;6.806;2023-06-14T03:03:44;4.65;;;2.60;;
11018;SDS011;5563;52.296;6.806;2023-06-14T03:06:31;2.53;;;2.33;;
11018;SDS011;5563;52.296;6.806;2023-06-14T03:08:58;3.17;;;2.75;;
11018;SDS011;5563;52.296;6.806;2023-06-14T03:11:33;5.22;;;2.70;;
11018;SDS011;5563;52.296;6.806;2023-06-14T03:14:00;3.60;;;2.30;;
11018;SDS011;5563;52.296;6.806;2023-06-14T03:16:36;4.93;;;2.70;;
11018;SDS011;5563;52.296;6.806;2023-06-14T03:19:04;3.05;;;2.35;;
11018;SDS011;5563;52.296;6.806;2023-06-14T03:21:36;3.72;;;2.83;;
11018;SDS011;5563;52.296;6.806;2023-06-14T03:24:03;5.47;;;2.78;;
11018;SDS011;5563;52.296;6.806;2023-06-14T03:26:38;3.33;;;2.60;;
11018;SDS011;5563;52.296;6.806;2023-06-14T03:29:12;3.10;;;2.50;;
11018;SDS011;5563;52.296;6.806;2023-06-14T03:31:42;5.18;;;2.50;;
11018;SDS011;5563;52.296;6.806;2023-06-14T03:34:30;2.92;;;2.67;;
11018;SDS011;5563;52.296;6.806;2023-06-14T03:36:58;5.15;;;2.70;;
11018;SDS011;5563;52.296;6.806;2023-06-14T03:39:31;2.80;;;2.55;;
11018;SDS011;5563;52.296;6.806;2023-06-14T03:41:58;3.92;;;2.63;;
11018;SDS011;5563;52.296;6.806;2023-06-14T03:44:31;4.40;;;2.50;;
11018;SDS011;5563;52.296;6.806;2023-06-14T03:46:58;6.28;;;2.72;;
11018;SDS011;5563;52.296;6.806;2023-06-14T03:49:32;5.60;;;2.38;;
11018;SDS011;5563;52.296;6.806;2023-06-14T03:51:58;2.97;;;2.58;;
11018;SDS011;5563;52.296;6.806;2023-06-14T03:54:31;3.28;;;2.58;;
11018;SDS011;5563;52.296;6.806;2023-06-14T03:57:02;3.40;;;2.38;;
11018;SDS011;5563;52.296;6.806;2023-06-14T03:59:29;3.78;;;2.60;;
11018;SDS011;5563;52.296;6.806;2023-06-14T04:02:03;4.10;;;2.50;;
11018;SDS011;5563;52.296;6.806;2023-06-14T04:04:32;3.60;;;2.55;;
11018;SDS011;5563;52.296;6.806;2023-06-14T04:07:12;4.13;;;2.35;;
11018;SDS011;5563;52.296;6.806;2023-06-14T04:09:45;4.03;;;2.72;;
11018;SDS011;5563;52.296;6.806;2023-06-14T04:12:20;5.50;;;2.75;;
11018;SDS011;5563;52.296;6.806;2023-06-14T04:14:46;9.73;;;3.30;;
11018;SDS011;5563;52.296;6.806;2023-06-14T04:17:22;3.67;;;2.78;;
11018;SDS011;5563;52.296;6.806;2023-06-14T04:19:49;3.00;;;2.50;;
11018;SDS011;5563;52.296;6.806;2023-06-14T04:22:21;3.17;;;2.60;;
11018;SDS011;5563;52.296;6.806;2023-06-14T04:24:48;3.08;;;2.65;;
11018;SDS011;5563;52.296;6.806;2023-06-14T04:27:30;5.03;;;2.80;;
11018;SDS011;5563;52.296;6.806;2023-06-14T04:30:09;5.38;;;2.78;;
11018;SDS011;5563;52.296;6.806;2023-06-14T04:32:36;4.85;;;2.72;;
11018;SDS011;5563;52.296;6.806;2023-06-14T04:35:12;6.30;;;2.90;;
11018;SDS011;5563;52.296;6.806;2023-06-14T04:37:39;4.15;;;2.70;;
11018;SDS011;5563;52.296;6.806;2023-06-14T04:40:17;4.38;;;2.45;;
11018;SDS011;5563;52.296;6.806;2023-06-14T04:42:44;3.50;;;2.70;;
11018;SDS011;5563;52.296;6.806;2023-06-14T04:45:18;6.43;;;2.40;;
11018;SDS011;5563;52.296;6.806;2023-06-14T04:47:46;3.58;;;2.97;;
11018;SDS011;5563;52.296;6.806;2023-06-14T04:50:20;3.97;;;2.63;;
11018;SDS011;5563;52.296;6.806;2023-06-14T04:52:47;3.00;;;2.50;;
11018;SDS011;5563;52.296;6.806;2023-06-14T04:55:24;5.75;;;2.88;;
11018;SDS011;5563;52.296;6.806;2023-06-14T04:57:57;3.42;;;3.08;;
11018;SDS011;5563;52.296;6.806;2023-06-14T05:00:31;2.97;;;2.33;;
11018;SDS011;5563;52.296;6.806;2023-06-14T05:02:58;7.05;;;2.88;;
11018;SDS011;5563;52.296;6.806;2023-06-14T05:05:41;5.63;;;3.13;;
11018;SDS011;5563;52.296;6.806;2023-06-14T05:08:14;4.25;;;3.03;;
11018;SDS011;5563;52.296;6.806;2023-06-14T05:10:41;4.65;;;3.10;;
11018;SDS011;5563;52.296;6.806;2023-06-14T05:13:15;4.13;;;2.58;;
11018;SDS011;5563;52.296;6.806;2023-06-14T05:15:41;3.20;;;2.70;;
11018;SDS011;5563;52.296;6.806;2023-06-14T05:18:16;2.92;;;2.60;;
11018;SDS011;5563;52.296;6.806;2023-06-14T05:20:49;2.92;;;2.35;;
11018;SDS011;5563;52.296;6.806;2023-06-14T05:23:15;3.42;;;2.90;;
11018;SDS011;5563;52.296;6.806;2023-06-14T05:25:49;7.25;;;2.63;;
11018;SDS011;5563;52.296;6.806;2023-06-14T05:28:16;4.95;;;2.88;;
11018;SDS011;5563;52.296;6.806;2023-06-14T05:30:49;6.47;;;3.00;;
11018;SDS011;5563;52.296;6.806;2023-06-14T05:33:16;3.00;;;2.70;;
11018;SDS011;5563;52.296;6.806;2023-06-14T05:35:43;3.80;;;2.63;;
11018;SDS011;5563;52.296;6.806;2023-06-14T05:38:16;3.83;;;2.40;;
11018;SDS011;5563;52.296;6.806;2023-06-14T05:40:49;6.05;;;2.95;;
11018;SDS011;5563;52.296;6.806;2023-06-14T05:43:16;4.50;;;2.72;;
11018;SDS011;5563;52.296;6.806;2023-06-14T05:45:43;4.22;;;3.15;;
11018;SDS011;5563;52.296;6.806;2023-06-14T05:48:17;2.95;;;2.53;;
11018;SDS011;5563;52.296;6.806;2023-06-14T05:50:43;5.47;;;2.42;;
11018;SDS011;5563;52.296;6.806;2023-06-14T05:53:17;4.43;;;2.90;;
11018;SDS011;5563;52.296;6.806;2023-06-14T05:55:50;3.13;;;2.47;;
11018;SDS011;5563;52.296;6.806;2023-06-14T05:58:28;5.25;;;2.40;;
11018;SDS011;5563;52.296;6.806;2023-06-14T06:00:55;4.18;;;2.53;;
11018;SDS011;5563;52.296;6.806;2023-06-14T06:03:21;5.80;;;2.58;;
11018;SDS011;5563;52.296;6.806;2023-06-14T06:05:56;4.68;;;2.38;;
11018;SDS011;5563;52.296;6.806;2023-06-14T06:08:29;3.53;;;2.20;;
11018;SDS011;5563;52.296;6.806;2023-06-14T06:11:04;3.47;;;2.53;;
11018;SDS011;5563;52.296;6.806;2023-06-14T06:13:38;2.60;;;2.40;;
11018;SDS011;5563;52.296;6.806;2023-06-14T06:16:05;3.33;;;2.45;;
11018;SDS011;5563;52.296;6.806;2023-06-14T06:18:32;2.35;;;2.15;;
11018;SDS011;5563;52.296;6.806;2023-06-14T06:21:07;4.20;;;2.30;;
11018;SDS011;5563;52.296;6.806;2023-06-14T06:23:34;3.75;;;2.28;;
11018;SDS011;5563;52.296;6.806;2023-06-14T06:26:09;3.45;;;2.60;;
11018;SDS011;5563;52.296;6.806;2023-06-14T06:28:36;2.97;;;2.20;;
11018;SDS011;5563;52.296;6.806;2023-06-14T06:31:09;3.70;;;2.58;;
11018;SDS011;5563;52.296;6.806;2023-06-14T06:33:37;5.53;;;2.78;;
11018;SDS011;5563;52.296;6.806;2023-06-14T06:36:13;3.17;;;2.35;;
11018;SDS011;5563;52.296;6.806;2023-06-14T06:38:39;3.17;;;2.20;;
11018;SDS011;5563;52.296;6.806;2023-06-14T06:41:07;3.75;;;2.08;;
11018;SDS011;5563;52.296;6.806;2023-06-14T06:43:41;3.67;;;2.63;;
11018;SDS011;5563;52.296;6.806;2023-06-14T06:46:14;5.50;;;2.40;;
11018;SDS011;5563;52.296;6.806;2023-06-14T06:48:49;3.22;;;2.17;;
11018;SDS011;5563;52.296;6.806;2023-06-14T06:51:16;7.57;;;2.30;;
11018;SDS011;5563;52.296;6.806;2023-06-14T06:53:52;2.40;;;2.10;;
11018;SDS011;5563;52.296;6.806;2023-06-14T06:56:21;4.40;;;2.10;;
11018;SDS011;5563;52.296;6.806;2023-06-14T06:58:57;4.65;;;2.22;;
11018;SDS011;5563;52.296;6.806;2023-06-14T07:01:24;3.78;;;2.17;;
11018;SDS011;5563;52.296;6.806;2023-06-14T07:03:52;4.53;;;2.15;;
11018;SDS011;5563;52.296;6.806;2023-06-14T07:06:26;3.15;;;2.40;;
11018;SDS011;5563;52.296;6.806;2023-06-14T07:09:06;2.65;;;1.90;;
11018;SDS011;5563;52.296;6.806;2023-06-14T07:11:47;2.33;;;2.13;;
11018;SDS011;5563;52.296;6.806;2023-06-14T07:14:21;2.60;;;2.05;;
11018;SDS011;5563;52.296;6.806;2023-06-14T07:16:49;4.95;;;2.17;;
11018;SDS011;5563;52.296;6.806;2023-06-14T07:19:23;4.43;;;2.22;;
11018;SDS011;5563;52.296;6.806;2023-06-14T07:21:50;5.25;;;2.08;;
11018;SDS011;5563;52.296;6.806;2023-06-14T07:24:16;3.15;;;2.00;;
11018;SDS011;5563;52.296;6.806;2023-06-14T07:26:50;4.30;;;2.05;;
11018;SDS011;5563;52.296;6.806;2023-06-14T07:29:17;4.40;;;2.20;;
11018;SDS011;5563;52.296;6.806;2023-06-14T07:31:51;2.45;;;2.20;;
11018;SDS011;5563;52.296;6.806;2023-06-14T07:34:17;2.95;;;2.00;;
11018;SDS011;5563;52.296;6.806;2023-06-14T07:36:51;5.97;;;2.13;;
11018;SDS011;5563;52.296;6.806;2023-06-14T07:39:18;2.83;;;1.83;;
11018;SDS011;5563;52.296;6.806;2023-06-14T07:41:52;3.55;;;1.90;;
11018;SDS011;5563;52.296;6.806;2023-06-14T07:44:19;2.30;;;2.03;;
11018;SDS011;5563;52.296;6.806;2023-06-14T07:46:52;4.93;;;2.10;;
11018;SDS011;5563;52.296;6.806;2023-06-14T07:49:26;4.60;;;2.30;;
11018;SDS011;5563;52.296;6.806;2023-06-14T07:51:53;2.50;;;2.10;;
11018;SDS011;5563;52.296;6.806;2023-06-14T07:54:27;4.20;;;2.20;;
11018;SDS011;5563;52.296;6.806;2023-06-14T07:56:54;2.92;;;2.10;;
11018;SDS011;5563;52.296;6.806;2023-06-14T07:59:29;2.20;;;1.88;;
11018;SDS011;5563;52.296;6.806;2023-06-14T08:01:56;5.30;;;2.20;;
11018;SDS011;5563;52.296;6.806;2023-06-14T08:04:36;2.35;;;2.08;;
11018;SDS011;5563;52.296;6.806;2023-06-14T08:07:03;3.13;;;1.90;;
11018;SDS011;5563;52.296;6.806;2023-06-14T08:09:38;2.67;;;1.90;;
11018;SDS011;5563;52.296;6.806;2023-06-14T08:12:05;5.47;;;2.08;;
11018;SDS011;5563;52.296;6.806;2023-06-14T08:14:45;12.70;;;3.58;;
11018;SDS011;5563;52.296;6.806;2023-06-14T08:17:34;2.45;;;1.85;;
11018;SDS011;5563;52.296;6.806;2023-06-14T08:20:01;3.03;;;2.13;;
11018;SDS011;5563;52.296;6.806;2023-06-14T08:22:37;3.58;;;2.20;;
11018;SDS011;5563;52.296;6.806;2023-06-14T08:25:12;3.08;;;1.80;;
11018;SDS011;5563;52.296;6.806;2023-06-14T08:27:40;1.80;;;1.67;;
11018;SDS011;5563;52.296;6.806;2023-06-14T08:30:14;3.65;;;1.75;;
11018;SDS011;5563;52.296;6.806;2023-06-14T08:32:41;3.95;;;1.90;;
11018;SDS011;5563;52.296;6.806;2023-06-14T08:35:08;2.17;;;1.77;;
11018;SDS011;5563;52.296;6.806;2023-06-14T08:37:42;2.47;;;1.58;;
11018;SDS011;5563;52.296;6.806;2023-06-14T08:40:19;2.10;;;1.63;;
11018;SDS011;5563;52.296;6.806;2023-06-14T08:42:54;3.28;;;1.85;;
11018;SDS011;5563;52.296;6.806;2023-06-14T08:45:22;6.07;;;2.40;;
11018;SDS011;5563;52.296;6.806;2023-06-14T08:47:58;2.03;;;1.83;;
11018;SDS011;5563;52.296;6.806;2023-06-14T08:50:27;4.25;;;2.80;;
11018;SDS011;5563;52.296;6.806;2023-06-14T08:53:04;2.67;;;1.83;;
11018;SDS011;5563;52.296;6.806;2023-06-14T08:55:32;2.15;;;1.95;;
11018;SDS011;5563;52.296;6.806;2023-06-14T08:58:11;2.05;;;1.85;;
11018;SDS011;5563;52.296;6.806;2023-06-14T09:00:48;4.88;;;1.85;;
11018;SDS011;5563;52.296;6.806;2023-06-14T09:03:15;3.00;;;1.80;;
11018;SDS011;5563;52.296;6.806;2023-06-14T09:05:50;2.20;;;2.00;;
11018;SDS011;5563;52.296;6.806;2023-06-14T09:08:32;4.43;;;1.95;;
11018;SDS011;5563;52.296;6.806;2023-06-14T09:11:05;1.70;;;1.50;;
11018;SDS011;5563;52.296;6.806;2023-06-14T09:13:32;4.20;;;1.85;;
11018;SDS011;5563;52.296;6.806;2023-06-14T09:16:05;2.60;;;1.70;;
11018;SDS011;5563;52.296;6.806;2023-06-14T09:18:36;2.83;;;1.92;;
11018;SDS011;5563;52.296;6.806;2023-06-14T09:21:11;4.90;;;1.92;;
11018;SDS011;5563;52.296;6.806;2023-06-14T09:23:39;4.75;;;1.90;;
11018;SDS011;5563;52.296;6.806;2023-06-14T09:26:15;1.98;;;1.73;;
11018;SDS011;5563;52.296;6.806;2023-06-14T09:28:50;7.70;;;3.20;;
11018;SDS011;5563;52.296;6.806;2023-06-14T09:31:24;4.82;;;3.25;;
11018;SDS011;5563;52.296;6.806;2023-06-14T09:33:51;2.88;;;2.00;;
11018;SDS011;5563;52.296;6.806;2023-06-14T09:36:25;2.10;;;1.90;;
11018;SDS011;5563;52.296;6.806;2023-06-14T09:38:59;3.47;;;1.92;;
11018;SDS011;5563;52.296;6.806;2023-06-14T09:41:34;3.63;;;2.20;;
11018;SDS011;5563;52.296;6.806;2023-06-14T09:44:12;3.08;;;2.08;;
11018;SDS011;5563;52.296;6.806;2023-06-14T09:46:46;3.15;;;2.72;;
11018;SDS011;5563;52.296;6.806;2023-06-14T09:49:20;8.57;;;7.50;;
11018;SDS011;5563;52.296;6.806;2023-06-14T09:51:49;2.40;;;1.90;;
11018;SDS011;5563;52.296;6.806;2023-06-14T09:54:26;2.10;;;1.90;;
11018;SDS011;5563;52.296;6.806;2023-06-14T09:56:54;3.53;;;1.73;;
11018;SDS011;5563;52.296;6.806;2023-06-14T09:59:28;2.30;;;2.03;;
11018;SDS011;5563;52.296;6.806;2023-06-14T10:02:06;2.65;;;2.00;;
11018;SDS011;5563;52.296;6.806;2023-06-14T10:04:53;2.05;;;1.83;;
11018;SDS011;5563;52.296;6.806;2023-06-14T10:07:32;3.47;;;1.77;;
11018;SDS011;5563;52.296;6.806;2023-06-14T10:10:26;1.98;;;1.80;;
11018;SDS011;5563;52.296;6.806;2023-06-14T10:13:00;2.33;;;2.00;;
11018;SDS011;5563;52.296;6.806;2023-06-14T10:15:42;3.75;;;1.92;;
11018;SDS011;5563;52.296;6.806;2023-06-14T10:21:25;3.80;;;2.30;;
11018;SDS011;5563;52.296;6.806;2023-06-14T10:23:59;4.43;;;2.10;;
11018;SDS011;5563;52.296;6.806;2023-06-14T10:26:39;3.78;;;2.00;;
11018;SDS011;5563;52.296;6.806;2023-06-14T10:29:26;3.05;;;1.90;;
11018;SDS011;5563;52.296;6.806;2023-06-14T10:32:05;4.68;;;1.65;;
11018;SDS011;5563;52.296;6.806;2023-06-14T10:34:32;4.55;;;1.92;;
11018;SDS011;5563;52.296;6.806;2023-06-14T10:37:06;2.00;;;1.88;;
11018;SDS011;5563;52.296;6.806;2023-06-14T10:39:40;2.15;;;1.92;;
11018;SDS011;5563;52.296;6.806;2023-06-14T10:42:15;2.00;;;1.65;;
11018;SDS011;5563;52.296;6.806;2023-06-14T10:44:43;3.45;;;1.80;;
11018;SDS011;5563;52.296;6.806;2023-06-14T10:50:12;2.78;;;1.80;;
11018;SDS011;5563;52.296;6.806;2023-06-14T10:52:47;3.50;;;1.80;;
11018;SDS011;5563;52.296;6.806;2023-06-14T10:55:14;2.67;;;1.70;;
11018;SDS011;5563;52.296;6.806;2023-06-14T10:57:51;2.88;;;2.33;;
11018;SDS011;5563;52.296;6.806;2023-06-14T11:00:29;3.30;;;1.90;;
11018;SDS011;5563;52.296;6.806;2023-06-14T11:05:45;5.32;;;1.88;;
11018;SDS011;5563;52.296;6.806;2023-06-14T11:11:46;3.72;;;2.42;;
11018;SDS011;5563;52.296;6.806;2023-06-14T11:14:15;2.17;;;1.80;;
11018;SDS011;5563;52.296;6.806;2023-06-14T11:16:49;2.38;;;1.65;;
11018;SDS011;5563;52.296;6.806;2023-06-14T11:19:16;2.25;;;1.80;;
11018;SDS011;5563;52.296;6.806;2023-06-14T11:21:53;1.83;;;1.73;;
11018;SDS011;5563;52.296;6.806;2023-06-14T11:24:20;3.70;;;1.67;;
11018;SDS011;5563;52.296;6.806;2023-06-14T11:26:53;2.97;;;2.00;;
11018;SDS011;5563;52.296;6.806;2023-06-14T11:29:23;4.15;;;1.85;;
11018;SDS011;5563;52.296;6.806;2023-06-14T11:31:56;2.88;;;2.00;;
11018;SDS011;5563;52.296;6.806;2023-06-14T11:34:29;2.25;;;1.73;;
11018;SDS011;5563;52.296;6.806;2023-06-14T11:37:02;2.90;;;2.00;;
11018;SDS011;5563;52.296;6.806;2023-06-14T11:39:29;2.05;;;1.83;;
11018;SDS011;5563;52.296;6.806;2023-06-14T11:42:03;2.55;;;1.70;;
11018;SDS011;5563;52.296;6.806;2023-06-14T11:44:31;1.80;;;1.70;;
11018;SDS011;5563;52.296;6.806;2023-06-14T11:47:05;3.17;;;1.75;;
11018;SDS011;5563;52.296;6.806;2023-06-14T11:49:38;4.35;;;1.65;;
11018;SDS011;5563;52.296;6.806;2023-06-14T11:52:11;4.47;;;1.60;;
11018;SDS011;5563;52.296;6.806;2023-06-14T11:54:38;2.25;;;1.70;;
11018;SDS011;5563;52.296;6.806;2023-06-14T11:57:19;4.65;;;1.60;;
11018;SDS011;5563;52.296;6.806;2023-06-14T11:59:54;3.40;;;1.80;;
11018;SDS011;5563;52.296;6.806;2023-06-14T12:02:28;1.88;;;1.75;;
11018;SDS011;5563;52.296;6.806;2023-06-14T12:05:04;2.78;;;2.15;;
11018;SDS011;5563;52.296;6.806;2023-06-14T12:07:46;2.05;;;1.73;;
11018;SDS011;5563;52.296;6.806;2023-06-14T12:10:20;1.55;;;1.33;;
11018;SDS011;5563;52.296;6.806;2023-06-14T12:12:47;4.68;;;1.58;;
11018;SDS011;5563;52.296;6.806;2023-06-14T12:15:20;3.13;;;1.30;;
11018;SDS011;5563;52.296;6.806;2023-06-14T12:17:48;3.55;;;1.50;;
11018;SDS011;5563;52.296;6.806;2023-06-14T12:20:21;2.05;;;1.50;;
11018;SDS011;5563;52.296;6.806;2023-06-14T12:22:50;2.47;;;1.50;;
11018;SDS011;5563;52.296;6.806;2023-06-14T12:25:32;2.92;;;1.50;;
11018;SDS011;5563;52.296;6.806;2023-06-14T12:28:08;3.58;;;1.52;;
11018;SDS011;5563;52.296;6.806;2023-06-14T12:30:43;3.47;;;1.40;;
11018;SDS011;5563;52.296;6.806;2023-06-14T12:33:17;2.92;;;1.73;;
11018;SDS011;5563;52.296;6.806;2023-06-14T12:35:44;1.25;;;1.20;;
11018;SDS011;5563;52.296;6.806;2023-06-14T12:38:18;1.77;;;1.52;;
11018;SDS011;5563;52.296;6.806;2023-06-14T12:40:45;5.35;;;1.60;;
11018;SDS011;5563;52.296;6.806;2023-06-14T12:43:18;1.85;;;1.50;;
11018;SDS011;5563;52.296;6.806;2023-06-14T12:45:45;1.85;;;1.55;;
11018;SDS011;5563;52.296;6.806;2023-06-14T12:48:19;2.80;;;1.73;;
11018;SDS011;5563;52.296;6.806;2023-06-14T12:50:53;2.30;;;1.50;;
11018;SDS011;5563;52.296;6.806;2023-06-14T12:53:21;2.33;;;1.50;;
11018;SDS011;5563;52.296;6.806;2023-06-14T12:55:54;3.53;;;1.38;;
11018;SDS011;5563;52.296;6.806;2023-06-14T12:58:27;1.60;;;1.50;;
11018;SDS011;5563;52.296;6.806;2023-06-14T13:00:54;1.38;;;1.27;;
11018;SDS011;5563;52.296;6.806;2023-06-14T13:03:34;1.70;;;1.58;;
11018;SDS011;5563;52.296;6.806;2023-06-14T13:06:15;2.80;;;1.30;;
11018;SDS011;5563;52.296;6.806;2023-06-14T13:08:48;2.95;;;1.48;;
11018;SDS011;5563;52.296;6.806;2023-06-14T13:11:22;1.50;;;1.40;;
11018;SDS011;5563;52.296;6.806;2023-06-14T13:13:49;3.70;;;2.00;;
11018;SDS011;5563;52.296;6.806;2023-06-14T13:16:22;2.90;;;1.40;;
11018;SDS011;5563;52.296;6.806;2023-06-14T13:18:56;2.33;;;1.40;;
11018;SDS011;5563;52.296;6.806;2023-06-14T13:21:23;1.83;;;1.50;;
11018;SDS011;5563;52.296;6.806;2023-06-14T13:23:56;3.20;;;1.35;;
11018;SDS011;5563;52.296;6.806;2023-06-14T13:26:29;1.60;;;1.50;;
11018;SDS011;5563;52.296;6.806;2023-06-14T13:29:03;2.38;;;1.40;;
11018;SDS011;5563;52.296;6.806;2023-06-14T13:31:36;1.88;;;1.55;;
11018;SDS011;5563;52.296;6.806;2023-06-14T13:34:09;2.13;;;1.30;;
11018;SDS011;5563;52.296;6.806;2023-06-14T13:36:36;1.63;;;1.20;;
11018;SDS011;5563;52.296;6.806;2023-06-14T13:39:10;2.67;;;1.40;;
11018;SDS011;5563;52.296;6.806;2023-06-14T13:41:46;1.30;;;1.20;;
11018;SDS011;5563;52.296;6.806;2023-06-14T13:44:19;1.88;;;1.40;;
11018;SDS011;5563;52.296;6.806;2023-06-14T13:46:54;1.73;;;1.52;;
11018;SDS011;5563;52.296;6.806;2023-06-14T13:49:21;2.55;;;1.70;;
11018;SDS011;5563;52.296;6.806;2023-06-14T13:51:48;3.42;;;1.63;;
11018;SDS011;5563;52.296;6.806;2023-06-14T13:54:21;2.38;;;1.50;;
11018;SDS011;5563;52.296;6.806;2023-06-14T13:56:48;2.53;;;1.42;;
11018;SDS011;5563;52.296;6.806;2023-06-14T13:59:21;3.42;;;1.38;;
11018;SDS011;5563;52.296;6.806;2023-06-14T14:01:49;2.65;;;1.50;;
11018;SDS011;5563;52.296;6.806;2023-06-14T14:04:28;1.48;;;1.38;;
11018;SDS011;5563;52.296;6.806;2023-06-14T14:07:09;1.25;;;1.15;;
11018;SDS011;5563;52.296;6.806;2023-06-14T14:09:43;3.53;;;1.60;;
11018;SDS011;5563;52.296;6.806;2023-06-14T14:12:10;1.60;;;1.50;;
11018;SDS011;5563;52.296;6.806;2023-06-14T14:14:44;2.85;;;1.40;;
11018;SDS011;5563;52.296;6.806;2023-06-14T14:17:17;2.33;;;1.50;;
11018;SDS011;5563;52.296;6.806;2023-06-14T14:19:50;1.30;;;1.20;;
11018;SDS011;5563;52.296;6.806;2023-06-14T14:22:24;1.30;;;1.20;;
11018;SDS011;5563;52.296;6.806;2023-06-14T14:24:51;4.18;;;1.50;;
11018;SDS011;5563;52.296;6.806;2023-06-14T14:27:25;1.23;;;1.13;;
11018;SDS011;5563;52.296;6.806;2023-06-14T14:29:58;2.78;;;1.55;;
11018;SDS011;5563;52.296;6.806;2023-06-14T14:32:25;2.20;;;1.40;;
11018;SDS011;5563;52.296;6.806;2023-06-14T14:34:52;1.80;;;1.42;;
11018;SDS011;5563;52.296;6.806;2023-06-14T14:37:25;1.35;;;1.25;;
11018;SDS011;5563;52.296;6.806;2023-06-14T14:39:52;2.65;;;1.50;;
11018;SDS011;5563;52.296;6.806;2023-06-14T14:42:26;3.30;;;1.30;;
11018;SDS011;5563;52.296;6.806;2023-06-14T14:44:53;2.90;;;1.50;;
11018;SDS011;5563;52.296;6.806;2023-06-14T14:47:26;2.10;;;1.30;;
11018;SDS011;5563;52.296;6.806;2023-06-14T14:49:53;2.22;;;1.42;;
11018;SDS011;5563;52.296;6.806;2023-06-14T14:52:26;1.92;;;1.23;;
11018;SDS011;5563;52.296;6.806;2023-06-14T14:54:53;2.13;;;1.35;;
11018;SDS011;5563;52.296;6.806;2023-06-14T14:57:27;2.53;;;1.50;;
11018;SDS011;5563;52.296;6.806;2023-06-14T15:00:00;1.75;;;1.30;;
11018;SDS011;5563;52.296;6.806;2023-06-14T15:02:27;2.88;;;1.40;;
11018;SDS011;5563;52.296;6.806;2023-06-14T15:05:00;2.58;;;1.48;;
11018;SDS011;5563;52.296;6.806;2023-06-14T15:07:34;2.50;;;1.42;;
11018;SDS011;5563;52.296;6.806;2023-06-14T15:10:07;2.25;;;1.67;;
11018;SDS011;5563;52.296;6.806;2023-06-14T15:12:41;1.67;;;1.50;;
11018;SDS011;5563;52.296;6.806;2023-06-14T15:15:15;1.50;;;1.40;;
11018;SDS011;5563;52.296;6.806;2023-06-14T15:17:43;2.75;;;1.40;;
11018;SDS011;5563;52.296;6.806;2023-06-14T15:20:16;3.25;;;1.30;;
11018;SDS011;5563;52.296;6.806;2023-06-14T15:22:43;1.55;;;1.45;;
11018;SDS011;5563;52.296;6.806;2023-06-14T15:25:17;1.40;;;1.30;;
11018;SDS011;5563;52.296;6.806;2023-06-14T15:27:45;3.15;;;1.40;;
11018;SDS011;5563;52.296;6.806;2023-06-14T15:30:18;4.20;;;1.50;;
11018;SDS011;5563;52.296;6.806;2023-06-14T15:32:52;1.85;;;1.40;;
11018;SDS011;5563;52.296;6.806;2023-06-14T15:35:19;1.48;;;1.38;;
11018;SDS011;5563;52.296;6.806;2023-06-14T15:37:52;3.42;;;1.63;;
11018;SDS011;5563;52.296;6.806;2023-06-14T15:40:19;3.60;;;1.85;;
11018;SDS011;5563;52.296;6.806;2023-06-14T15:42:52;2.03;;;1.25;;
11018;SDS011;5563;52.296;6.806;2023-06-14T15:45:19;2.65;;;1.52;;